createdAt,value
2022-12-17T00:00:58.963Z,65.84
2022-12-17T00:03:20.272Z,65.67
2022-12-17T00:05:40.830Z,65.86
2022-12-17T00:08:03.890Z,66.17
2022-12-17T00:10:24.835Z,66.18
2022-12-17T00:12:44.822Z,66.47
2022-12-17T00:15:05.434Z,66.60
2022-12-17T00:17:25.471Z,66.13
2022-12-17T00:19:46.013Z,66.75
2022-12-17T00:22:07.502Z,66.55
2022-12-17T00:24:28.124Z,66.11
2022-12-17T00:26:48.923Z,65.99
2022-12-17T00:29:09.257Z,66.27
2022-12-17T00:31:29.829Z,66.05
2022-12-17T00:33:50.124Z,66.01
2022-12-17T00:36:11.784Z,66.11
2022-12-17T00:38:35.912Z,66.19
2022-12-17T00:40:56.129Z,65.60
2022-12-17T00:43:29.556Z,65.48
2022-12-17T00:45:50.205Z,65.87
2022-12-17T00:48:10.760Z,65.45
2022-12-17T00:50:31.009Z,65.73
2022-12-17T00:52:51.500Z,65.56
2022-12-17T00:55:12.240Z,65.30
2022-12-17T00:57:32.839Z,65.58
2022-12-17T00:59:53.057Z,65.68
2022-12-17T01:02:15.137Z,65.70
2022-12-17T01:04:35.838Z,65.46
2022-12-17T01:06:56.583Z,65.18
2022-12-17T01:09:16.949Z,65.58
2022-12-17T01:11:37.511Z,65.95
2022-12-17T01:13:57.779Z,65.44
2022-12-17T01:16:36.267Z,65.15
2022-12-17T01:18:56.898Z,65.54
2022-12-17T01:21:17.308Z,65.16
2022-12-17T01:23:38.198Z,64.58
2022-12-17T01:25:58.653Z,64.46
2022-12-17T01:28:18.868Z,64.41
2022-12-17T01:30:39.485Z,63.94
2022-12-17T01:32:59.936Z,64.18
2022-12-17T01:35:20.497Z,64.13
2022-12-17T01:37:43.414Z,63.77
2022-12-17T01:40:03.820Z,64.06
2022-12-17T01:42:24.242Z,64.16
2022-12-17T01:45:11.209Z,64.16
2022-12-17T01:47:46.747Z,64.54
2022-12-17T01:50:23.786Z,64.17
2022-12-17T01:52:43.977Z,64.04
2022-12-17T01:55:04.460Z,64.37
2022-12-17T01:57:26.054Z,64.77
2022-12-17T01:59:57.578Z,64.19
2022-12-17T02:02:17.765Z,64.43
2022-12-17T02:04:38.076Z,64.19
2022-12-17T02:07:10.110Z,63.70
2022-12-17T02:09:47.400Z,64.26
2022-12-17T02:12:46.751Z,64.21
2022-12-17T02:15:34.988Z,64.06
2022-12-17T02:18:08.167Z,64.04
2022-12-17T02:20:48.915Z,64.21
2022-12-17T02:23:50.706Z,64.29
2022-12-17T02:26:16.603Z,64.17
2022-12-17T02:28:38.728Z,63.96
2022-12-17T02:30:59.214Z,63.91
2022-12-17T02:33:20.044Z,63.83
2022-12-17T02:35:46.774Z,63.41
2022-12-17T02:38:08.661Z,63.58
2022-12-17T02:40:29.714Z,63.57
2022-12-17T02:42:50.523Z,63.71
2022-12-17T02:45:11.080Z,64.09
2022-12-17T02:47:33.044Z,64.26
2022-12-17T02:49:53.521Z,64.13
2022-12-17T02:52:13.976Z,63.69
2022-12-17T02:54:34.121Z,64.06
2022-12-17T02:56:54.309Z,64.04
2022-12-17T02:59:14.576Z,63.81
2022-12-17T03:01:34.977Z,63.59
2022-12-17T03:03:55.393Z,63.24
2022-12-17T03:06:15.396Z,63.21
2022-12-17T03:08:35.921Z,63.83
2022-12-17T03:10:56.437Z,63.77
2022-12-17T03:13:16.642Z,63.67
2022-12-17T03:15:36.918Z,63.89
2022-12-17T03:18:04.951Z,63.67
2022-12-17T03:20:25.682Z,63.61
2022-12-17T03:22:45.846Z,63.63
2022-12-17T03:25:06.324Z,63.68
2022-12-17T03:27:26.802Z,64.13
2022-12-17T03:29:46.969Z,64.07
2022-12-17T03:32:06.950Z,64.18
2022-12-17T03:34:27.207Z,64.53
2022-12-17T03:36:48.390Z,64.73
2022-12-17T03:39:08.580Z,64.84
2022-12-17T03:41:28.942Z,65.07
2022-12-17T03:43:49.363Z,65.07
2022-12-17T03:46:13.356Z,65.07
2022-12-17T03:48:34.278Z,65.26
2022-12-17T03:50:54.214Z,65.36
2022-12-17T03:53:14.296Z,65.30
2022-12-17T03:55:34.627Z,65.32
2022-12-17T03:57:55.053Z,65.43
2022-12-17T04:00:14.991Z,65.19
2022-12-17T04:02:35.282Z,64.92
2022-12-17T04:04:55.760Z,64.63
2022-12-17T04:07:15.880Z,64.22
2022-12-17T04:09:36.090Z,64.55
2022-12-17T04:11:56.081Z,64.35
2022-12-17T04:14:16.567Z,63.97
2022-12-17T04:16:36.614Z,63.61
2022-12-17T04:18:56.784Z,63.81
2022-12-17T04:21:16.978Z,63.54
2022-12-17T04:23:37.880Z,63.34
2022-12-17T04:25:58.430Z,63.31
2022-12-17T04:28:19.085Z,63.19
2022-12-17T04:30:47.002Z,63.08
2022-12-17T04:33:07.643Z,62.94
2022-12-17T04:35:28.134Z,62.94
2022-12-17T04:37:50.042Z,62.68
2022-12-17T04:40:10.042Z,62.59
2022-12-17T04:42:30.588Z,62.53
2022-12-17T04:44:51.178Z,62.49
2022-12-17T04:47:11.424Z,62.97
2022-12-17T04:49:31.612Z,63.11
2022-12-17T04:51:52.100Z,63.17
2022-12-17T04:54:12.624Z,62.68
2022-12-17T04:56:33.077Z,62.83
2022-12-17T04:58:53.749Z,62.73
2022-12-17T05:01:14.228Z,62.75
2022-12-17T05:03:35.831Z,63.05
2022-12-17T05:05:56.488Z,62.97
2022-12-17T05:08:17.022Z,62.61
2022-12-17T05:10:37.569Z,62.63
2022-12-17T05:12:58.097Z,62.46
2022-12-17T05:15:18.209Z,62.46
2022-12-17T05:17:45.942Z,62.72
2022-12-17T05:20:06.442Z,62.63
2022-12-17T05:22:26.708Z,62.53
2022-12-17T05:24:47.340Z,62.09
2022-12-17T05:27:07.973Z,62.56
2022-12-17T05:29:29.064Z,61.86
2022-12-17T05:31:49.077Z,62.26
2022-12-17T05:34:09.329Z,62.00
2022-12-17T05:36:30.559Z,62.07
2022-12-17T05:38:51.107Z,61.51
2022-12-17T05:41:13.790Z,61.82
2022-12-17T05:43:34.720Z,61.15
2022-12-17T05:45:56.733Z,61.36
2022-12-17T05:48:17.612Z,61.52
2022-12-17T05:50:37.590Z,61.64
2022-12-17T05:52:57.664Z,61.28
2022-12-17T05:55:18.041Z,60.96
2022-12-17T05:57:40.600Z,61.04
2022-12-17T06:00:00.929Z,60.74
2022-12-17T06:02:21.291Z,60.19
2022-12-17T06:04:41.743Z,60.59
2022-12-17T06:07:01.693Z,60.56
2022-12-17T06:09:22.316Z,60.54
2022-12-17T06:11:42.920Z,60.51
2022-12-17T06:14:03.893Z,60.23
2022-12-17T06:16:25.304Z,59.99
2022-12-17T06:18:45.762Z,60.37
2022-12-17T06:21:06.162Z,60.49
2022-12-17T06:23:28.970Z,60.11
2022-12-17T06:25:48.842Z,60.29
2022-12-17T06:28:16.724Z,60.16
2022-12-17T06:30:37.097Z,59.73
2022-12-17T06:32:57.684Z,60.04
2022-12-17T06:35:17.947Z,60.31
2022-12-17T06:37:42.853Z,59.76
2022-12-17T06:40:03.082Z,60.21
2022-12-17T06:42:23.659Z,60.08
2022-12-17T06:44:44.161Z,60.11
2022-12-17T06:47:04.579Z,60.58
2022-12-17T06:49:25.019Z,60.42
2022-12-17T06:51:45.547Z,60.27
2022-12-17T06:54:07.403Z,60.66
2022-12-17T06:56:27.383Z,60.74
2022-12-17T06:58:47.337Z,60.99
2022-12-17T07:01:07.680Z,60.77
2022-12-17T07:03:30.580Z,60.81
2022-12-17T07:05:50.802Z,60.59
2022-12-17T07:08:17.802Z,61.06
2022-12-17T07:10:38.131Z,60.67
2022-12-17T07:12:58.308Z,60.95
2022-12-17T07:15:18.352Z,61.20
2022-12-17T07:17:46.573Z,60.79
2022-12-17T07:20:06.516Z,60.89
2022-12-17T07:22:27.041Z,61.05
2022-12-17T07:24:48.029Z,61.28
2022-12-17T07:27:08.210Z,61.19
2022-12-17T07:29:28.834Z,61.28
2022-12-17T07:31:49.410Z,61.65
2022-12-17T07:34:09.852Z,60.91
2022-12-17T07:36:30.313Z,61.24
2022-12-17T07:38:50.737Z,61.07
2022-12-17T07:41:10.936Z,61.51
2022-12-17T07:43:32.118Z,61.09
2022-12-17T07:45:52.368Z,61.24
2022-12-17T07:48:13.568Z,61.10
2022-12-17T07:50:33.648Z,60.96
2022-12-17T07:52:54.190Z,61.39
2022-12-17T07:55:18.236Z,61.24
2022-12-17T07:57:41.643Z,61.13
2022-12-17T08:00:02.188Z,60.89
2022-12-17T08:02:22.903Z,61.16
2022-12-17T08:04:42.909Z,61.54
2022-12-17T08:07:08.829Z,61.60
2022-12-17T08:09:32.005Z,62.07
2022-12-17T08:11:52.028Z,62.23
2022-12-17T08:14:12.557Z,61.67
2022-12-17T08:16:32.959Z,61.41
2022-12-17T08:18:53.186Z,61.52
2022-12-17T08:21:13.549Z,61.42
2022-12-17T08:23:34.280Z,61.89
2022-12-17T08:25:54.311Z,61.00
2022-12-17T08:28:48.355Z,61.29
2022-12-17T08:30:56.936Z,62.10
2022-12-17T08:33:21.682Z,61.79
2022-12-17T08:35:41.946Z,61.83
2022-12-17T08:38:02.580Z,61.58
2022-12-17T08:40:23.064Z,62.14
2022-12-17T08:42:44.049Z,61.48
2022-12-17T08:45:04.469Z,61.76
2022-12-17T08:47:24.920Z,61.55
2022-12-17T08:49:45.381Z,61.93
2022-12-17T08:52:05.945Z,61.60
2022-12-17T08:54:26.189Z,61.88
2022-12-17T08:56:46.718Z,61.80
2022-12-17T08:59:07.061Z,62.01
2022-12-17T09:01:27.765Z,61.68
2022-12-17T09:03:48.240Z,62.13
2022-12-17T09:06:11.175Z,61.93
2022-12-17T09:08:31.660Z,62.01
2022-12-17T09:10:52.400Z,62.24
2022-12-17T09:13:12.669Z,62.09
2022-12-17T09:15:33.097Z,62.52
2022-12-17T09:17:55.919Z,61.97
2022-12-17T09:20:16.129Z,62.19
2022-12-17T09:22:36.191Z,62.74
2022-12-17T09:24:56.604Z,62.45
2022-12-17T09:27:16.853Z,62.32
2022-12-17T09:29:37.384Z,62.92
2022-12-17T09:31:57.761Z,63.45
2022-12-17T09:34:18.175Z,63.18
2022-12-17T09:36:38.572Z,62.75
2022-12-17T09:38:58.747Z,63.04
2022-12-17T09:41:46.955Z,62.72
2022-12-17T09:44:35.841Z,63.61
2022-12-17T09:47:07.348Z,62.99
2022-12-17T09:49:47.498Z,62.97
2022-12-17T09:52:07.686Z,63.60
2022-12-17T09:54:40.603Z,63.10
2022-12-17T09:57:02.147Z,62.88
2022-12-17T09:59:22.785Z,63.75
2022-12-17T10:01:46.149Z,63.56
2022-12-17T10:04:08.148Z,62.90
2022-12-17T10:06:36.886Z,63.31
2022-12-17T10:08:57.302Z,63.67
2022-12-17T10:11:34.160Z,62.52
2022-12-17T10:13:55.050Z,62.87
2022-12-17T10:16:15.331Z,62.68
2022-12-17T10:18:36.336Z,62.67
2022-12-17T10:21:24.539Z,63.34
2022-12-17T10:23:52.113Z,62.84
2022-12-17T10:26:14.770Z,63.36
2022-12-17T10:28:41.467Z,63.28
2022-12-17T10:31:01.919Z,63.12
2022-12-17T10:33:26.963Z,63.25
2022-12-17T10:35:57.353Z,62.74
2022-12-17T10:38:20.218Z,62.78
2022-12-17T10:40:48.331Z,62.43
2022-12-17T10:43:08.777Z,62.98
2022-12-17T10:45:41.410Z,62.29
2022-12-17T10:48:07.530Z,63.01
2022-12-17T10:50:41.916Z,63.06
2022-12-17T10:53:04.596Z,62.88
2022-12-17T10:55:37.501Z,62.76
2022-12-17T10:58:11.098Z,62.84
2022-12-17T11:00:45.684Z,62.63
2022-12-17T11:03:09.544Z,62.36
2022-12-17T11:05:43.701Z,62.23
2022-12-17T11:08:07.470Z,62.81
2022-12-17T11:10:40.649Z,62.50
2022-12-17T11:13:13.917Z,62.14
2022-12-17T11:15:40.887Z,62.19
2022-12-17T11:18:11.525Z,62.01
2022-12-17T11:20:43.364Z,62.45
2022-12-17T11:23:08.781Z,61.89
2022-12-17T11:25:47.136Z,61.82
2022-12-17T11:28:32.029Z,61.45
2022-12-17T11:31:05.757Z,61.77
2022-12-17T11:33:40.458Z,61.65
2022-12-17T11:36:40.172Z,60.75
2022-12-17T11:39:12.969Z,61.05
2022-12-17T11:41:43.287Z,60.75
2022-12-17T11:44:15.341Z,60.38
2022-12-17T11:46:44.635Z,59.54
2022-12-17T11:49:10.311Z,59.92
2022-12-17T11:51:56.308Z,59.12
2022-12-17T11:54:39.205Z,59.37
2022-12-17T11:57:50.426Z,59.26
2022-12-17T12:00:21.429Z,58.51
2022-12-17T12:03:08.211Z,58.60
2022-12-17T12:05:59.384Z,58.50
2022-12-17T12:08:44.852Z,57.81
2022-12-17T12:11:44.130Z,57.80
2022-12-17T12:14:32.300Z,57.57
2022-12-17T12:17:14.003Z,56.91
2022-12-17T12:19:51.973Z,56.92
2022-12-17T12:22:32.141Z,56.65
2022-12-17T12:25:05.194Z,57.04
2022-12-17T12:27:50.912Z,56.79
2022-12-17T12:30:35.199Z,56.05
2022-12-17T12:33:14.834Z,55.76
2022-12-17T12:35:42.819Z,55.70
2022-12-17T12:38:03.492Z,56.12
2022-12-17T12:40:27.421Z,55.82
2022-12-17T12:43:35.430Z,55.59
2022-12-17T12:46:18.017Z,55.71
2022-12-17T12:49:01.594Z,56.33
2022-12-17T12:51:21.686Z,56.19
2022-12-17T12:53:42.314Z,56.35
2022-12-17T12:56:10.396Z,56.30
2022-12-17T12:58:48.553Z,56.70
2022-12-17T13:01:08.560Z,57.04
2022-12-17T13:03:56.512Z,57.62
2022-12-17T13:05:58.215Z,57.76
2022-12-17T13:08:10.087Z,57.48
2022-12-17T13:10:27.447Z,57.88
2022-12-17T13:12:35.007Z,58.29
2022-12-17T13:15:06.767Z,58.31
2022-12-17T13:17:17.339Z,58.24
2022-12-17T13:19:32.952Z,58.54
2022-12-17T13:21:36.093Z,58.47
2022-12-17T13:23:39.322Z,58.48
2022-12-17T13:25:41.261Z,58.49
2022-12-17T13:27:53.255Z,58.81
2022-12-17T13:29:55.054Z,58.62
2022-12-17T13:32:21.494Z,58.46
2022-12-17T13:34:41.535Z,58.41
2022-12-17T13:37:05.923Z,58.14
2022-12-17T13:39:16.870Z,57.91
2022-12-17T13:41:21.431Z,57.96
2022-12-17T13:43:27.245Z,58.29
2022-12-17T13:45:34.367Z,58.26
2022-12-17T13:48:00.769Z,58.33
2022-12-17T13:50:34.904Z,58.70
2022-12-17T13:52:37.189Z,58.98
2022-12-17T13:54:38.999Z,59.12
2022-12-17T13:56:40.901Z,58.90
2022-12-17T13:58:43.141Z,59.12
2022-12-17T14:00:44.852Z,59.24
2022-12-17T14:02:46.766Z,59.00
2022-12-17T14:04:53.596Z,59.08
2022-12-17T14:07:03.300Z,58.91
2022-12-17T14:09:05.560Z,59.19
2022-12-17T14:11:26.062Z,59.35
2022-12-17T14:13:27.785Z,59.29
2022-12-17T14:15:31.853Z,59.23
2022-12-17T14:17:51.234Z,58.81
2022-12-17T14:20:02.495Z,58.84
2022-12-17T14:22:04.239Z,59.05
2022-12-17T14:24:06.426Z,58.34
2022-12-17T14:26:12.429Z,59.10
2022-12-17T14:28:25.210Z,59.21
2022-12-17T14:30:33.095Z,58.59
2022-12-17T14:32:36.623Z,58.84
2022-12-17T14:34:42.236Z,59.39
2022-12-17T14:36:44.488Z,59.36
2022-12-17T14:38:57.670Z,59.53
2022-12-17T14:41:39.397Z,59.14
2022-12-17T14:43:41.374Z,59.41
2022-12-17T14:46:16.737Z,59.34
2022-12-17T14:48:18.459Z,59.41
2022-12-17T14:50:20.067Z,59.80
2022-12-17T14:52:35.676Z,59.88
2022-12-17T14:54:44.545Z,59.82
2022-12-17T14:56:49.359Z,59.94
2022-12-17T14:58:51.019Z,60.00
2022-12-17T15:01:08.184Z,59.41
2022-12-17T15:03:15.830Z,59.90
2022-12-17T15:05:17.915Z,59.88
2022-12-17T15:07:27.725Z,59.55
2022-12-17T15:09:29.491Z,59.55
2022-12-17T15:11:31.181Z,59.44
2022-12-17T15:13:33.074Z,59.34
2022-12-17T15:15:34.804Z,59.51
2022-12-17T15:17:46.149Z,59.77
2022-12-17T15:19:51.445Z,59.46
2022-12-17T15:21:57.678Z,59.44
2022-12-17T15:23:59.520Z,59.81
2022-12-17T15:26:01.648Z,59.63
2022-12-17T15:28:03.367Z,59.69
2022-12-17T15:30:05.614Z,59.85
2022-12-17T15:32:07.644Z,59.88
2022-12-17T15:34:11.630Z,60.11
2022-12-17T15:36:13.442Z,60.18
2022-12-17T15:38:15.109Z,60.46
2022-12-17T15:40:16.751Z,59.98
2022-12-17T15:42:36.806Z,60.01
2022-12-17T15:44:38.497Z,59.91
2022-12-17T15:46:40.273Z,59.87
2022-12-17T15:48:48.122Z,59.76
2022-12-17T15:50:51.767Z,59.67
2022-12-17T15:52:53.399Z,59.90
2022-12-17T15:54:55.393Z,60.29
2022-12-17T15:56:58.311Z,60.00
2022-12-17T15:59:00.364Z,60.27
2022-12-17T16:01:06.331Z,59.65
2022-12-17T16:03:08.402Z,60.27
2022-12-17T16:05:10.689Z,60.15
2022-12-17T16:07:12.746Z,60.03
2022-12-17T16:09:14.672Z,60.30
2022-12-17T16:11:16.778Z,60.43
2022-12-17T16:13:18.749Z,60.46
2022-12-17T16:15:20.768Z,60.92
2022-12-17T16:17:22.822Z,61.11
2022-12-17T16:19:24.831Z,61.45
2022-12-17T16:21:26.772Z,61.37
2022-12-17T16:23:28.840Z,60.73
2022-12-17T16:25:30.932Z,60.84
2022-12-17T16:27:33.066Z,60.79
2022-12-17T16:29:35.064Z,61.10
2022-12-17T16:31:37.649Z,60.91
2022-12-17T16:33:42.044Z,60.61
2022-12-17T16:35:51.434Z,60.91
2022-12-17T16:37:53.429Z,60.79
2022-12-17T16:39:59.913Z,60.40
2022-12-17T16:42:02.286Z,60.19
2022-12-17T16:44:05.338Z,60.51
2022-12-17T16:46:25.366Z,60.45
2022-12-17T16:48:27.466Z,60.04
2022-12-17T16:50:30.815Z,60.23
2022-12-17T16:52:34.075Z,60.20
2022-12-17T16:54:36.082Z,59.62
2022-12-17T16:56:40.384Z,59.74
2022-12-17T16:58:43.252Z,59.75
2022-12-17T17:00:46.549Z,58.66
2022-12-17T17:02:53.032Z,58.36
2022-12-17T17:04:55.673Z,58.50
2022-12-17T17:06:58.021Z,58.49
2022-12-17T17:09:00.055Z,58.16
2022-12-17T17:11:07.297Z,58.17
2022-12-17T17:13:09.636Z,58.42
2022-12-17T17:15:11.885Z,57.90
2022-12-17T17:17:14.041Z,57.75
2022-12-17T17:19:16.178Z,57.51
2022-12-17T17:21:19.974Z,57.22
2022-12-17T17:23:22.240Z,56.83
2022-12-17T17:25:24.264Z,56.75
2022-12-17T17:27:26.278Z,57.08
2022-12-17T17:29:28.594Z,56.00
2022-12-17T17:33:53.880Z,56.44
2022-12-17T17:35:59.670Z,56.10
2022-12-17T17:38:05.907Z,55.84
2022-12-17T17:40:08.922Z,55.92
2022-12-17T17:42:10.949Z,55.64
2022-12-17T17:44:14.225Z,55.05
2022-12-17T17:46:18.399Z,54.99
2022-12-17T17:48:20.395Z,54.42
2022-12-17T17:50:22.378Z,54.62
2022-12-17T17:52:24.348Z,54.33
2022-12-17T17:54:26.505Z,54.24
2022-12-17T17:56:31.413Z,54.47
2022-12-17T17:58:34.693Z,54.12
2022-12-17T18:00:37.889Z,53.70
2022-12-17T18:02:40.610Z,53.70
2022-12-17T18:04:43.000Z,53.69
2022-12-17T18:07:16.104Z,54.21
2022-12-17T18:09:09.405Z,53.96
2022-12-17T18:11:13.972Z,53.87
2022-12-17T18:13:19.110Z,53.87
2022-12-17T18:15:21.190Z,53.76
2022-12-17T18:17:23.214Z,53.98
2022-12-17T18:19:25.175Z,53.99
2022-12-17T18:21:29.005Z,53.59
2022-12-17T18:23:31.049Z,53.52
2022-12-17T18:25:37.731Z,52.97
2022-12-17T18:27:40.184Z,53.40
2022-12-17T18:29:42.165Z,53.03
2022-12-17T18:31:50.005Z,52.93
2022-12-17T18:33:57.040Z,53.24
2022-12-17T18:35:59.029Z,52.60
2022-12-17T18:38:00.947Z,52.62
2022-12-17T18:40:04.112Z,52.67
2022-12-17T18:42:09.385Z,52.83
2022-12-17T18:44:12.761Z,52.28
2022-12-17T18:46:18.004Z,52.02
2022-12-17T18:48:23.951Z,51.80
2022-12-17T18:50:25.849Z,52.41
2022-12-17T18:52:28.461Z,52.18
2022-12-17T18:54:31.819Z,52.26
2022-12-17T18:57:00.003Z,52.04
2022-12-17T18:58:57.482Z,51.98
2022-12-17T19:00:59.547Z,51.61
2022-12-17T19:03:01.750Z,52.86
2022-12-17T19:05:04.484Z,52.76
2022-12-17T19:07:06.723Z,52.21
2022-12-17T19:09:15.575Z,53.00
2022-12-17T19:11:21.357Z,52.90
2022-12-17T19:13:23.344Z,52.73
2022-12-17T19:15:25.309Z,52.73
2022-12-17T19:17:27.311Z,52.71
2022-12-17T19:19:29.550Z,52.77
2022-12-17T19:21:33.889Z,52.98
2022-12-17T19:23:36.220Z,52.53
2022-12-17T19:25:38.216Z,52.77
2022-12-17T19:27:40.161Z,53.21
2022-12-17T19:29:47.615Z,53.24
2022-12-17T19:31:51.152Z,53.69
2022-12-17T19:33:56.688Z,53.32
2022-12-17T19:36:01.897Z,53.84
2022-12-17T19:38:03.952Z,53.08
2022-12-17T19:40:06.772Z,53.98
2022-12-17T19:42:25.079Z,53.84
2022-12-17T19:44:27.495Z,53.62
2022-12-17T19:46:31.159Z,53.92
2022-12-17T19:48:34.671Z,54.14
2022-12-17T19:50:36.720Z,53.86
2022-12-17T19:52:38.647Z,54.39
2022-12-17T19:54:40.614Z,54.63
2022-12-17T19:56:44.571Z,55.15
2022-12-17T19:58:48.888Z,54.47
2022-12-17T20:00:52.358Z,54.31
2022-12-17T20:02:54.557Z,55.16
2022-12-17T20:04:56.845Z,55.64
2022-12-17T20:07:00.817Z,56.26
2022-12-17T20:09:05.304Z,55.92
2022-12-17T20:11:29.450Z,55.81
2022-12-17T20:13:31.426Z,56.77
2022-12-17T20:15:33.477Z,56.94
2022-12-17T20:17:35.443Z,56.64
2022-12-17T20:19:37.482Z,57.31
2022-12-17T20:21:39.973Z,57.00
2022-12-17T20:23:41.955Z,57.82
2022-12-17T20:25:43.905Z,58.00
2022-12-17T20:27:45.939Z,57.28
2022-12-17T20:29:48.307Z,57.67
2022-12-17T20:31:51.498Z,57.89
2022-12-17T20:33:53.602Z,57.65
2022-12-17T20:35:55.812Z,57.49
2022-12-17T20:37:57.734Z,57.76
2022-12-17T20:39:59.686Z,58.21
2022-12-17T20:42:01.684Z,58.09
2022-12-17T20:44:07.085Z,58.73
2022-12-17T20:46:10.563Z,58.52
2022-12-17T20:48:13.551Z,58.62
2022-12-17T20:50:15.563Z,58.80
2022-12-17T20:52:17.548Z,59.50
2022-12-17T20:54:19.521Z,59.45
2022-12-17T20:56:25.383Z,59.61
2022-12-17T20:58:27.373Z,59.30
2022-12-17T21:00:29.309Z,59.36
2022-12-17T21:02:31.450Z,59.36
2022-12-17T21:04:33.595Z,59.13
2022-12-17T21:06:39.498Z,59.59
2022-12-17T21:08:47.888Z,59.46
2022-12-17T21:10:56.687Z,59.28
2022-12-17T21:13:01.684Z,60.30
2022-12-17T21:15:04.195Z,59.73
2022-12-17T21:17:06.288Z,60.49
2022-12-17T21:19:09.350Z,60.24
2022-12-17T21:21:14.520Z,60.27
2022-12-17T21:23:16.431Z,60.58
2022-12-17T21:25:18.611Z,60.60
2022-12-17T21:27:22.484Z,60.95
2022-12-17T21:29:24.936Z,61.07
2022-12-17T21:31:29.706Z,60.79
2022-12-17T21:33:32.084Z,60.56
2022-12-17T21:35:34.651Z,61.50
2022-12-17T21:37:36.699Z,61.06
2022-12-17T21:39:38.681Z,61.71
2022-12-17T21:41:44.979Z,61.62
2022-12-17T21:43:47.328Z,61.83
2022-12-17T21:45:49.440Z,62.19
2022-12-17T21:47:51.518Z,63.10
2022-12-17T21:49:53.442Z,63.08
2022-12-17T21:51:55.618Z,62.80
2022-12-17T21:54:00.232Z,63.37
2022-12-17T21:56:05.067Z,63.78
2022-12-17T21:58:08.203Z,63.67
2022-12-17T22:00:11.086Z,64.25
2022-12-17T22:02:13.228Z,64.23
2022-12-17T22:04:15.461Z,64.54
2022-12-17T22:06:20.767Z,63.78
2022-12-17T22:08:24.321Z,64.68
2022-12-17T22:10:46.759Z,64.55
2022-12-17T22:12:51.619Z,64.75
2022-12-17T22:14:53.616Z,65.12
2022-12-17T22:16:56.281Z,64.51
2022-12-17T22:19:00.373Z,65.30
2022-12-17T22:21:03.792Z,65.60
2022-12-17T22:23:05.867Z,65.46
2022-12-17T22:25:10.775Z,64.75
2022-12-17T22:27:14.744Z,65.31
2022-12-17T22:29:37.194Z,64.45
2022-12-17T22:31:42.628Z,64.86
2022-12-17T22:34:13.664Z,65.09
2022-12-17T22:38:06.144Z,66.26
2022-12-17T22:42:54.357Z,65.98
2022-12-17T22:44:40.880Z,65.68
2022-12-17T22:44:43.982Z,65.85
2022-12-17T22:45:43.211Z,65.77
2022-12-17T22:47:45.295Z,66.14
2022-12-17T22:49:47.209Z,66.65
2022-12-17T22:51:49.248Z,66.75
2022-12-17T22:53:52.040Z,66.85
2022-12-17T22:55:54.294Z,66.70
2022-12-17T22:57:57.500Z,66.93
2022-12-17T22:59:59.465Z,66.56
2022-12-17T23:02:01.571Z,67.02
2022-12-17T23:04:03.966Z,66.67
2022-12-17T23:06:09.028Z,66.86
2022-12-17T23:08:11.038Z,67.14
2022-12-17T23:10:12.973Z,66.29
2022-12-17T23:12:18.128Z,66.80
2022-12-17T23:14:20.152Z,66.80
2022-12-17T23:16:22.482Z,67.05
2022-12-17T23:18:24.825Z,66.95
2022-12-17T23:20:28.885Z,67.21
2022-12-17T23:22:30.871Z,66.68
2022-12-17T23:24:32.930Z,66.64
2022-12-17T23:26:36.703Z,67.07
2022-12-17T23:28:38.997Z,66.90
2022-12-17T23:30:40.945Z,67.44
2022-12-17T23:32:43.352Z,67.32
2022-12-17T23:34:45.320Z,67.57
2022-12-17T23:36:47.645Z,67.30
2022-12-17T23:38:49.740Z,67.38
2022-12-17T23:40:51.771Z,67.53
2022-12-17T23:42:53.756Z,67.44
2022-12-17T23:44:55.747Z,67.14
2022-12-17T23:46:57.806Z,67.64
2022-12-17T23:48:59.802Z,67.47
2022-12-17T23:51:02.568Z,67.00
2022-12-17T23:53:04.450Z,66.63
2022-12-17T23:55:07.250Z,66.53
2022-12-17T23:57:09.349Z,67.21
2022-12-17T23:59:11.499Z,66.57
